createdAt,value
2023-08-15T00:01:57.879Z,94825.09
2023-08-15T00:04:24.601Z,94831.91
2023-08-15T00:06:51.227Z,94834.28
2023-08-15T00:09:17.833Z,94827.47
2023-08-15T00:11:44.469Z,94836.22
2023-08-15T00:14:12.258Z,94838.91
2023-08-15T00:16:40.305Z,94842.00
2023-08-15T00:19:07.183Z,94834.63
2023-08-15T00:21:33.855Z,94841.25
2023-08-15T00:24:00.472Z,94838.81
2023-08-15T00:26:27.099Z,94843.41
2023-08-15T00:28:53.736Z,94833.53
2023-08-15T00:31:20.507Z,94840.97
2023-08-15T00:33:48.527Z,94841.59
2023-08-15T00:36:15.192Z,94834.91
2023-08-15T00:38:41.822Z,94827.88
2023-08-15T00:41:08.618Z,94837.56
2023-08-15T00:43:35.230Z,94839.31
2023-08-15T00:46:04.370Z,94835.00
2023-08-15T00:48:32.632Z,94837.53
2023-08-15T00:51:02.132Z,94843.78
2023-08-15T00:53:31.282Z,94836.59
2023-08-15T00:55:59.158Z,94840.78
2023-08-15T00:58:26.743Z,94840.47
2023-08-15T01:00:53.805Z,94848.09
2023-08-15T01:03:21.040Z,94843.47
2023-08-15T01:05:48.798Z,94843.47
2023-08-15T01:08:17.131Z,94842.50
2023-08-15T01:10:44.836Z,94836.66
2023-08-15T01:13:20.395Z,94841.72
2023-08-15T01:15:50.965Z,94836.47
2023-08-15T01:18:23.920Z,94839.53
2023-08-15T01:20:51.644Z,94839.69
2023-08-15T01:23:24.737Z,94841.09
2023-08-15T01:25:54.934Z,94831.25
2023-08-15T01:28:21.569Z,94838.88
2023-08-15T01:30:55.364Z,94844.75
2023-08-15T01:33:27.291Z,94841.72
2023-08-15T01:35:59.818Z,94839.97
2023-08-15T01:38:32.526Z,94835.38
2023-08-15T01:41:02.272Z,94841.91
2023-08-15T01:43:30.314Z,94847.06
2023-08-15T01:45:57.549Z,94837.78
2023-08-15T01:48:24.286Z,94834.56
2023-08-15T01:50:50.995Z,94828.19
2023-08-15T01:53:17.616Z,94831.72
2023-08-15T01:55:44.214Z,94840.69
2023-08-15T01:58:12.173Z,94830.59
2023-08-15T02:00:38.817Z,94835.38
2023-08-15T02:03:05.619Z,94832.97
2023-08-15T02:05:34.939Z,94837.78
2023-08-15T02:08:02.627Z,94828.84
2023-08-15T02:10:29.250Z,94822.16
2023-08-15T02:12:55.859Z,94823.31
2023-08-15T02:15:23.867Z,94831.22
2023-08-15T02:17:50.508Z,94818.94
2023-08-15T02:20:17.340Z,94818.34
2023-08-15T02:22:43.977Z,94817.72
2023-08-15T02:25:10.610Z,94817.88
2023-08-15T02:27:37.207Z,94817.72
2023-08-15T02:30:06.083Z,94816.09
2023-08-15T02:32:34.097Z,94820.91
2023-08-15T02:35:00.862Z,94823.84
2023-08-15T02:37:27.488Z,94828.50
2023-08-15T02:39:54.065Z,94814.06
2023-08-15T02:42:20.669Z,94819.31
2023-08-15T02:44:47.258Z,94815.16
2023-08-15T02:47:13.865Z,94818.88
2023-08-15T02:49:41.790Z,94818.34
2023-08-15T02:52:08.501Z,94818.78
2023-08-15T02:54:35.139Z,94822.94
2023-08-15T02:57:01.764Z,94820.41
2023-08-15T02:59:28.439Z,94825.47
2023-08-15T03:01:55.086Z,94823.44
2023-08-15T03:04:21.759Z,94823.69
2023-08-15T03:06:49.756Z,94823.56
2023-08-15T03:09:17.962Z,94818.81
2023-08-15T03:11:44.605Z,94819.28
2023-08-15T03:14:11.551Z,94817.53
2023-08-15T03:16:38.141Z,94832.53
2023-08-15T03:19:04.887Z,94817.34
2023-08-15T03:21:31.986Z,94820.50
2023-08-15T03:23:59.968Z,94813.31
2023-08-15T03:26:28.553Z,94812.38
2023-08-15T03:28:57.269Z,94824.63
2023-08-15T03:31:24.276Z,94823.03
2023-08-15T03:33:51.084Z,94822.09
2023-08-15T03:36:17.714Z,94821.06
2023-08-15T03:38:44.459Z,94832.34
2023-08-15T03:41:12.486Z,94830.38
2023-08-15T03:43:39.176Z,94830.81
2023-08-15T03:46:07.244Z,94828.75
2023-08-15T03:48:34.365Z,94825.41
2023-08-15T03:51:01.972Z,94838.63
2023-08-15T03:53:29.347Z,94836.06
2023-08-15T03:55:56.151Z,94845.13
2023-08-15T03:58:24.720Z,94845.94
2023-08-15T04:00:52.058Z,94847.34
2023-08-15T04:03:18.719Z,94863.25
2023-08-15T04:05:46.052Z,94845.59
2023-08-15T04:08:12.963Z,94859.13
2023-08-15T04:10:42.477Z,94856.44
2023-08-15T04:13:09.545Z,94850.66
2023-08-15T04:15:38.325Z,94850.91
2023-08-15T04:18:06.736Z,94860.25
2023-08-15T04:20:37.550Z,94863.94
2023-08-15T04:23:05.015Z,94858.91
2023-08-15T04:25:31.982Z,94866.59
2023-08-15T04:27:58.711Z,94859.59
2023-08-15T04:30:25.388Z,94862.16
2023-08-15T04:32:54.637Z,94852.19
2023-08-15T04:35:21.246Z,94862.00
2023-08-15T04:37:47.856Z,94851.81
2023-08-15T04:40:14.582Z,94853.78
2023-08-15T04:42:41.623Z,94847.63
2023-08-15T04:45:09.348Z,94855.75
2023-08-15T04:47:36.350Z,94862.44
2023-08-15T04:50:05.144Z,94863.34
2023-08-15T04:52:31.803Z,94862.69
2023-08-15T04:54:58.518Z,94866.16
2023-08-15T04:57:25.262Z,94866.94
2023-08-15T04:59:51.906Z,94867.94
2023-08-15T05:02:18.520Z,94872.50
2023-08-15T05:04:45.165Z,94870.09
2023-08-15T05:07:13.141Z,94864.91
2023-08-15T05:09:41.047Z,94872.47
2023-08-15T05:12:08.290Z,94877.75
2023-08-15T05:14:35.038Z,94878.59
2023-08-15T05:17:01.701Z,94871.28
2023-08-15T05:19:28.299Z,94876.84
2023-08-15T05:21:56.947Z,94882.22
2023-08-15T05:24:26.283Z,94885.75
2023-08-15T05:26:53.160Z,94880.09
2023-08-15T05:29:19.869Z,94893.47
2023-08-15T05:31:46.501Z,94884.38
2023-08-15T05:34:13.141Z,94886.63
2023-08-15T05:36:39.804Z,94889.06
2023-08-15T05:39:06.544Z,94889.88
2023-08-15T05:41:34.621Z,94894.78
2023-08-15T05:44:01.292Z,94885.63
2023-08-15T05:46:27.952Z,94891.38
2023-08-15T05:48:54.591Z,94891.28
2023-08-15T05:51:21.235Z,94891.94
2023-08-15T05:53:47.951Z,94897.38
2023-08-15T05:56:14.637Z,94901.69
2023-08-15T05:58:42.675Z,94905.34
2023-08-15T06:01:09.522Z,94904.56
2023-08-15T06:03:49.681Z,94900.56
2023-08-15T06:06:19.021Z,94905.19
2023-08-15T06:08:45.676Z,94898.22
2023-08-15T06:11:12.273Z,94896.00
2023-08-15T06:13:38.950Z,94905.53
2023-08-15T06:16:06.925Z,94901.72
2023-08-15T06:18:34.090Z,94894.56
2023-08-15T06:21:00.718Z,94884.69
2023-08-15T06:23:27.485Z,94901.13
2023-08-15T06:25:54.169Z,94896.38
2023-08-15T06:28:21.952Z,94893.97
2023-08-15T06:30:48.634Z,94900.41
2023-08-15T06:33:16.606Z,94888.81
2023-08-15T06:35:43.277Z,94896.53
2023-08-15T06:38:09.912Z,94896.94
2023-08-15T06:40:36.803Z,94905.47
2023-08-15T06:43:03.578Z,94909.84
2023-08-15T06:45:30.220Z,94902.94
2023-08-15T06:47:56.867Z,94910.13
2023-08-15T06:50:24.840Z,94906.13
2023-08-15T06:52:51.538Z,94906.84
2023-08-15T06:55:18.418Z,94902.84
2023-08-15T06:57:45.056Z,94911.88
2023-08-15T07:00:13.535Z,94903.31
2023-08-15T07:02:41.309Z,94899.34
2023-08-15T07:05:08.625Z,94904.78
2023-08-15T07:07:36.651Z,94898.53
2023-08-15T07:10:03.574Z,94905.22
2023-08-15T07:12:30.173Z,94912.78
2023-08-15T07:14:56.797Z,94905.56
2023-08-15T07:17:23.455Z,94905.59
2023-08-15T07:19:50.106Z,94906.94
2023-08-15T07:22:16.801Z,94900.88
2023-08-15T07:24:44.811Z,94905.03
2023-08-15T07:27:11.476Z,94892.97
2023-08-15T07:29:38.161Z,94901.09
2023-08-15T07:32:07.245Z,94911.03
2023-08-15T07:34:34.013Z,94907.84
2023-08-15T07:37:00.649Z,94908.59
2023-08-15T07:39:27.269Z,94903.84
2023-08-15T07:41:55.228Z,94908.53
2023-08-15T07:44:21.938Z,94902.59
2023-08-15T07:46:48.529Z,94900.50
2023-08-15T07:49:15.762Z,94907.97
2023-08-15T07:51:42.396Z,94895.59
2023-08-15T07:54:09.043Z,94894.28
2023-08-15T07:56:35.693Z,94902.00
2023-08-15T07:59:04.492Z,94902.34
2023-08-15T08:01:31.196Z,94902.00
2023-08-15T08:03:58.317Z,94908.03
2023-08-15T08:06:39.019Z,94907.75
2023-08-15T08:09:07.237Z,94905.50
2023-08-15T08:11:34.000Z,94913.94
2023-08-15T08:14:00.645Z,94909.06
2023-08-15T08:16:28.622Z,94911.50
2023-08-15T08:18:55.282Z,94919.53
2023-08-15T08:21:22.311Z,94914.09
2023-08-15T08:23:48.951Z,94909.00
2023-08-15T08:26:15.707Z,94911.78
2023-08-15T08:28:42.351Z,94909.41
2023-08-15T08:31:09.234Z,94911.03
2023-08-15T08:33:37.266Z,94917.47
2023-08-15T08:36:04.543Z,94918.25
2023-08-15T08:38:31.276Z,94909.22
2023-08-15T08:40:57.923Z,94910.72
2023-08-15T08:43:24.655Z,94915.25
2023-08-15T08:45:55.667Z,94912.16
2023-08-15T08:48:23.278Z,94915.78
2023-08-15T08:50:52.118Z,94913.97
2023-08-15T08:53:18.841Z,94923.53
2023-08-15T08:55:48.359Z,94921.75
2023-08-15T08:58:15.735Z,94924.16
2023-08-15T09:00:42.871Z,94927.97
2023-08-15T09:03:10.881Z,94929.22
2023-08-15T09:05:38.028Z,94926.66
2023-08-15T09:08:07.385Z,94919.59
2023-08-15T09:10:34.048Z,94928.00
2023-08-15T09:13:01.287Z,94943.03
2023-08-15T09:15:30.159Z,94943.31
2023-08-15T09:18:00.215Z,94938.00
2023-08-15T09:20:27.043Z,94940.16
2023-08-15T09:22:57.032Z,94943.88
2023-08-15T09:25:28.790Z,94941.59
2023-08-15T09:27:55.806Z,94942.09
2023-08-15T09:30:25.612Z,94928.38
2023-08-15T09:32:52.302Z,94931.00
2023-08-15T09:35:19.799Z,94933.19
2023-08-15T09:37:48.153Z,94933.28
2023-08-15T09:40:19.780Z,94934.41
2023-08-15T09:42:47.888Z,94927.88
2023-08-15T09:45:15.597Z,94925.84
2023-08-15T09:47:43.360Z,94923.75
2023-08-15T09:50:12.923Z,94926.34
2023-08-15T09:52:41.974Z,94931.66
2023-08-15T09:55:09.790Z,94918.63
2023-08-15T09:57:36.915Z,94926.78
2023-08-15T10:00:07.223Z,94933.19
2023-08-15T10:02:43.604Z,94927.16
2023-08-15T10:05:12.619Z,94933.75
2023-08-15T10:07:43.245Z,94925.06
2023-08-15T10:10:10.455Z,94926.03
2023-08-15T10:12:39.196Z,94925.03
2023-08-15T10:15:08.661Z,94918.28
2023-08-15T10:17:36.397Z,94915.72
2023-08-15T10:20:07.422Z,94922.03
2023-08-15T10:22:35.380Z,94915.59
2023-08-15T10:25:22.020Z,94914.91
2023-08-15T10:27:50.545Z,94919.97
2023-08-15T10:30:33.936Z,94909.38
2023-08-15T10:33:02.703Z,94910.84
2023-08-15T10:35:33.760Z,94909.03
2023-08-15T10:38:14.316Z,94916.88
2023-08-15T10:40:43.082Z,94918.88
2023-08-15T10:43:13.965Z,94916.28
2023-08-15T10:45:44.762Z,94913.56
2023-08-15T10:48:11.840Z,94912.53
2023-08-15T10:50:44.637Z,94903.16
2023-08-15T10:53:11.334Z,94900.25
2023-08-15T10:55:39.481Z,94901.53
2023-08-15T10:58:08.393Z,94907.28
2023-08-15T11:00:37.349Z,94916.63
2023-08-15T11:03:07.876Z,94905.50
2023-08-15T11:05:35.051Z,94905.09
2023-08-15T11:08:12.808Z,94903.59
2023-08-15T11:10:44.148Z,94902.34
2023-08-15T11:13:11.253Z,94900.59
2023-08-15T11:15:38.338Z,94896.88
2023-08-15T11:18:06.551Z,94896.00
2023-08-15T11:20:33.824Z,94905.31
2023-08-15T11:23:00.948Z,94896.41
2023-08-15T11:25:27.796Z,94894.44
2023-08-15T11:27:54.562Z,94893.84
2023-08-15T11:30:21.560Z,94892.06
2023-08-15T11:32:49.803Z,94889.50
2023-08-15T11:35:18.488Z,94889.94
2023-08-15T11:37:45.193Z,94884.63
2023-08-15T11:40:11.929Z,94867.06
2023-08-15T11:42:39.118Z,94881.50
2023-08-15T11:45:17.406Z,94875.09
2023-08-15T11:47:56.114Z,94890.91
2023-08-15T11:50:37.899Z,94879.22
2023-08-15T11:53:11.831Z,94877.69
2023-08-15T11:55:40.062Z,94870.84
2023-08-15T11:58:29.052Z,94870.03
2023-08-15T12:00:56.750Z,94870.63
2023-08-15T12:03:26.156Z,94870.59
2023-08-15T12:05:55.887Z,94869.31
2023-08-15T12:08:26.517Z,94886.47
2023-08-15T12:10:54.214Z,94872.53
2023-08-15T12:13:29.770Z,94857.72
2023-08-15T12:15:56.490Z,94860.88
2023-08-15T12:18:23.205Z,94864.94
2023-08-15T12:20:49.866Z,94850.75
2023-08-15T12:23:23.138Z,94851.72
2023-08-15T12:25:53.792Z,94844.69
2023-08-15T12:28:20.434Z,94845.41
2023-08-15T12:30:47.375Z,94863.66
2023-08-15T12:33:18.364Z,94857.31
2023-08-15T12:35:53.936Z,94857.66
2023-08-15T12:38:21.960Z,94853.91
2023-08-15T12:40:48.605Z,94847.41
2023-08-15T12:43:15.321Z,94842.53
2023-08-15T12:45:42.046Z,94839.84
2023-08-15T12:48:08.911Z,94840.28
2023-08-15T12:50:35.671Z,94843.09
2023-08-15T12:53:02.349Z,94848.78
2023-08-15T12:55:30.341Z,94861.34
2023-08-15T12:57:57.008Z,94879.22
2023-08-15T13:00:23.906Z,94883.22
2023-08-15T13:02:50.964Z,94912.84
2023-08-15T13:05:17.875Z,94908.53
2023-08-15T13:07:44.550Z,94897.31
2023-08-15T13:10:11.174Z,94917.41
2023-08-15T13:12:39.128Z,94907.19
2023-08-15T13:15:07.407Z,94905.59
2023-08-15T13:17:34.103Z,94905.47
2023-08-15T13:20:00.740Z,94917.47
2023-08-15T13:22:27.468Z,94902.03
2023-08-15T13:24:54.291Z,94899.56
2023-08-15T13:27:20.996Z,94885.84
2023-08-15T13:29:49.090Z,94858.53
2023-08-15T13:32:15.730Z,94849.59
2023-08-15T13:34:42.385Z,94855.00
2023-08-15T13:37:09.015Z,94869.16
2023-08-15T13:39:35.957Z,94874.03
2023-08-15T13:42:02.680Z,94871.47
2023-08-15T13:44:29.416Z,94860.16
2023-08-15T13:46:57.451Z,94867.97
2023-08-15T13:49:24.168Z,94863.41
2023-08-15T13:51:50.808Z,94885.59
2023-08-15T13:54:17.501Z,94892.34
2023-08-15T13:56:44.152Z,94906.38
2023-08-15T13:59:10.828Z,94922.94
2023-08-15T14:01:37.527Z,94931.16
2023-08-15T14:04:06.103Z,94939.22
2023-08-15T14:06:32.831Z,94946.84
2023-08-15T14:08:59.677Z,94952.41
2023-08-15T14:11:26.433Z,94968.72
2023-08-15T14:13:53.074Z,94984.78
2023-08-15T14:16:20.010Z,94988.66
2023-08-15T14:18:47.133Z,94964.56
2023-08-15T14:21:15.888Z,94951.69
2023-08-15T14:23:45.429Z,94947.44
2023-08-15T14:26:12.299Z,94981.09
2023-08-15T14:28:39.072Z,94991.88
2023-08-15T14:31:05.873Z,94997.41
2023-08-15T14:33:32.886Z,94986.78
2023-08-15T14:35:59.754Z,94993.97
2023-08-15T14:38:28.300Z,94995.38
2023-08-15T14:40:55.046Z,94993.31
2023-08-15T14:43:21.674Z,94990.13
2023-08-15T14:45:48.309Z,94999.22
2023-08-15T14:48:14.981Z,94990.59
2023-08-15T14:50:42.485Z,94988.34
2023-08-15T14:53:09.254Z,94981.00
2023-08-15T14:55:37.287Z,94974.31
2023-08-15T14:58:04.418Z,94988.78
2023-08-15T15:00:31.056Z,95011.50
2023-08-15T15:02:57.860Z,95012.19
2023-08-15T15:05:24.610Z,95014.63
2023-08-15T15:07:51.246Z,95013.31
2023-08-15T15:10:17.938Z,95013.78
2023-08-15T15:12:46.331Z,95010.75
2023-08-15T15:15:13.188Z,94997.78
2023-08-15T15:17:40.063Z,94997.16
2023-08-15T15:20:08.006Z,94975.91
2023-08-15T15:22:34.751Z,94972.41
2023-08-15T15:25:01.524Z,94959.81
2023-08-15T15:27:28.207Z,94952.16
2023-08-15T15:29:56.209Z,94950.84
2023-08-15T15:32:23.038Z,94961.59
2023-08-15T15:34:49.982Z,94953.56
2023-08-15T15:37:16.619Z,94945.53
2023-08-15T15:39:43.276Z,94953.31
2023-08-15T15:42:10.102Z,94954.25
2023-08-15T15:44:37.003Z,94972.91
2023-08-15T15:47:05.292Z,94976.13
2023-08-15T15:49:31.976Z,94985.38
2023-08-15T15:51:58.908Z,94991.78
2023-08-15T15:54:25.569Z,94998.50
2023-08-15T15:56:52.271Z,95008.53
2023-08-15T15:59:19.718Z,95024.50
2023-08-15T16:01:46.406Z,95027.56
2023-08-15T16:04:14.434Z,95020.19
2023-08-15T16:06:41.218Z,95007.66
2023-08-15T16:09:07.916Z,95007.13
2023-08-15T16:11:34.636Z,95010.78
2023-08-15T16:14:01.290Z,95010.16
2023-08-15T16:16:29.072Z,95013.03
2023-08-15T16:18:55.694Z,95019.25
2023-08-15T16:21:23.745Z,95019.06
2023-08-15T16:23:50.444Z,95021.50
2023-08-15T16:26:18.434Z,95021.31
2023-08-15T16:28:46.219Z,95007.41
2023-08-15T16:31:13.867Z,95001.22
2023-08-15T16:33:40.519Z,94998.97
2023-08-15T16:36:07.176Z,95010.66
2023-08-15T16:38:35.190Z,95006.47
2023-08-15T16:41:01.818Z,95004.56
2023-08-15T16:43:28.525Z,94993.41
2023-08-15T16:45:55.216Z,95002.81
2023-08-15T16:48:21.984Z,94991.16
2023-08-15T16:50:48.751Z,94996.25
2023-08-15T16:53:15.725Z,94987.66
2023-08-15T16:55:46.110Z,94983.03
2023-08-15T16:58:13.828Z,94975.53
2023-08-15T17:00:41.091Z,94961.66
2023-08-15T17:03:07.986Z,94957.22
2023-08-15T17:05:34.785Z,94957.19
2023-08-15T17:08:01.416Z,94953.50
2023-08-15T17:10:28.333Z,94962.44
2023-08-15T17:12:56.694Z,94971.69
2023-08-15T17:15:23.291Z,94965.31
2023-08-15T17:17:50.211Z,94960.53
2023-08-15T17:20:17.074Z,94962.50
2023-08-15T17:22:45.309Z,94957.38
2023-08-15T17:25:11.936Z,94957.84
2023-08-15T17:27:38.580Z,94951.97
2023-08-15T17:30:07.912Z,94951.16
2023-08-15T17:32:34.606Z,94954.69
2023-08-15T17:35:01.273Z,94963.78
2023-08-15T17:37:28.068Z,94972.84
2023-08-15T17:39:54.701Z,94977.97
2023-08-15T17:42:21.553Z,94994.38
2023-08-15T17:44:48.557Z,95006.00
2023-08-15T17:47:16.542Z,95018.03
2023-08-15T17:49:43.198Z,95025.94
2023-08-15T17:52:10.141Z,95032.94
2023-08-15T17:54:36.785Z,95035.38
2023-08-15T17:57:05.314Z,95051.09
2023-08-15T17:59:32.023Z,95051.91
2023-08-15T18:02:00.835Z,95050.31
2023-08-15T18:04:29.298Z,95044.09
2023-08-15T18:06:55.978Z,95053.94
2023-08-15T18:09:25.786Z,95057.13
2023-08-15T18:11:52.800Z,95064.31
2023-08-15T18:14:20.341Z,95066.25
2023-08-15T18:16:48.897Z,95068.41
2023-08-15T18:19:19.456Z,95066.59
2023-08-15T18:21:47.544Z,95077.16
2023-08-15T18:24:14.219Z,95079.72
2023-08-15T18:26:40.867Z,95077.06
2023-08-15T18:29:07.494Z,95078.03
2023-08-15T18:31:34.148Z,95078.69
2023-08-15T18:34:00.821Z,95097.91
2023-08-15T18:36:27.448Z,95090.94
2023-08-15T18:38:55.432Z,95095.28
2023-08-15T18:41:22.166Z,95082.69
2023-08-15T18:43:48.793Z,95085.38
2023-08-15T18:46:15.510Z,95082.53
2023-08-15T18:48:42.193Z,95085.53
2023-08-15T18:51:08.866Z,95089.22
2023-08-15T18:53:35.513Z,95090.66
2023-08-15T18:56:03.529Z,95085.22
2023-08-15T18:58:31.369Z,95083.78
2023-08-15T19:00:58.054Z,95082.50
2023-08-15T19:03:25.464Z,95088.63
2023-08-15T19:05:52.604Z,95094.72
2023-08-15T19:08:19.285Z,95093.03
2023-08-15T19:10:45.953Z,95102.72
2023-08-15T19:13:14.002Z,95101.47
2023-08-15T19:15:40.715Z,95103.38
2023-08-15T19:18:07.621Z,95106.53
2023-08-15T19:20:34.356Z,95112.72
2023-08-15T19:23:01.147Z,95102.69
2023-08-15T19:25:29.180Z,95106.66
2023-08-15T19:27:55.910Z,95102.59
2023-08-15T19:30:24.345Z,95111.88
2023-08-15T19:32:51.495Z,95115.47
2023-08-15T19:35:18.304Z,95114.66
2023-08-15T19:37:45.289Z,95107.47
2023-08-15T19:40:12.679Z,95100.97
2023-08-15T19:42:42.342Z,95098.84
2023-08-15T19:45:10.577Z,95102.34
2023-08-15T19:47:39.215Z,95099.44
2023-08-15T19:50:08.246Z,95097.78
2023-08-15T19:52:35.284Z,95097.16
2023-08-15T19:55:04.225Z,95098.69
2023-08-15T19:57:36.156Z,95104.94
2023-08-15T20:00:02.974Z,95098.28
2023-08-15T20:02:29.667Z,95103.72
2023-08-15T20:04:57.760Z,95112.13
2023-08-15T20:07:24.647Z,95105.25
2023-08-15T20:10:04.106Z,95120.78
2023-08-15T20:12:35.478Z,95112.16
2023-08-15T20:15:02.195Z,95103.53
2023-08-15T20:17:31.862Z,95112.19
2023-08-15T20:20:00.290Z,95114.97
2023-08-15T20:22:27.371Z,95114.66
2023-08-15T20:24:54.636Z,95113.06
2023-08-15T20:27:21.868Z,95112.28
2023-08-15T20:29:51.461Z,95114.50
2023-08-15T20:32:18.191Z,95115.97
2023-08-15T20:34:44.887Z,95105.13
2023-08-15T20:37:12.879Z,95102.75
2023-08-15T20:39:39.581Z,95098.13
2023-08-15T20:42:06.280Z,95105.94
2023-08-15T20:44:33.116Z,95110.25
2023-08-15T20:47:00.383Z,95124.75
2023-08-15T20:49:27.235Z,95129.78
2023-08-15T20:51:54.066Z,95129.03
2023-08-15T20:54:22.082Z,95133.75
2023-08-15T20:56:48.837Z,95128.94
2023-08-15T20:59:15.496Z,95135.59
2023-08-15T21:01:42.564Z,95137.56
2023-08-15T21:04:09.309Z,95139.31
2023-08-15T21:06:36.036Z,95144.09
2023-08-15T21:09:02.777Z,95136.47
2023-08-15T21:11:30.847Z,95144.31
2023-08-15T21:13:58.915Z,95146.69
2023-08-15T21:16:25.611Z,95157.13
2023-08-15T21:18:52.230Z,95163.22
2023-08-15T21:21:18.921Z,95152.28
2023-08-15T21:23:45.538Z,95163.16
2023-08-15T21:26:12.622Z,95164.94
2023-08-15T21:28:40.646Z,95171.88
2023-08-15T21:31:07.453Z,95174.06
2023-08-15T21:33:34.254Z,95188.50
2023-08-15T21:36:02.921Z,95181.75
2023-08-15T21:38:29.572Z,95185.59
2023-08-15T21:40:56.262Z,95189.47
2023-08-15T21:43:22.894Z,95184.22
2023-08-15T21:45:50.894Z,95174.25
2023-08-15T21:48:17.646Z,95172.34
2023-08-15T21:50:44.285Z,95166.16
2023-08-15T21:53:11.008Z,95168.44
2023-08-15T21:55:37.653Z,95163.91
2023-08-15T21:58:04.565Z,95154.38
2023-08-15T22:00:31.371Z,95140.28
2023-08-15T22:02:59.413Z,95142.19
2023-08-15T22:05:26.619Z,95140.00
2023-08-15T22:07:53.761Z,95135.19
2023-08-15T22:10:21.532Z,95135.63
2023-08-15T22:12:49.895Z,95137.53
2023-08-15T22:15:18.197Z,95138.88
2023-08-15T22:17:50.367Z,95142.81
2023-08-15T22:20:22.618Z,95143.44
2023-08-15T22:22:49.466Z,95129.72
2023-08-15T22:25:21.292Z,95128.19
2023-08-15T22:27:49.831Z,95128.19
2023-08-15T22:30:16.527Z,95126.97
2023-08-15T22:32:43.150Z,95127.31
2023-08-15T22:35:10.386Z,95123.69
2023-08-15T22:37:38.355Z,95124.28
2023-08-15T22:40:06.199Z,95119.69
2023-08-15T22:42:32.851Z,95120.09
2023-08-15T22:44:59.579Z,95121.59
2023-08-15T22:47:26.315Z,95123.88
2023-08-15T22:49:52.943Z,95112.50
2023-08-15T22:52:19.548Z,95118.53
2023-08-15T22:54:47.672Z,95118.84
2023-08-15T22:57:14.331Z,95117.56
2023-08-15T22:59:40.942Z,95104.34
2023-08-15T23:02:07.563Z,95105.31
2023-08-15T23:04:34.232Z,95100.59
2023-08-15T23:07:01.021Z,95092.34
2023-08-15T23:09:27.646Z,95082.03
2023-08-15T23:11:55.626Z,95070.53
2023-08-15T23:14:22.286Z,95066.06
2023-08-15T23:16:48.893Z,95076.84
2023-08-15T23:19:15.570Z,95065.16
2023-08-15T23:21:42.666Z,95066.94
2023-08-15T23:24:10.219Z,95059.81
2023-08-15T23:26:37.149Z,95067.47
2023-08-15T23:29:05.526Z,95081.00
2023-08-15T23:31:33.597Z,95072.91
2023-08-15T23:34:00.506Z,95075.00
2023-08-15T23:36:27.278Z,95078.00
2023-08-15T23:38:53.908Z,95082.44
2023-08-15T23:41:20.503Z,95088.03
2023-08-15T23:43:47.222Z,95096.91
2023-08-15T23:46:16.160Z,95102.88
2023-08-15T23:48:43.553Z,95096.44
2023-08-15T23:51:10.221Z,95094.34
2023-08-15T23:53:36.856Z,95095.25
2023-08-15T23:56:04.169Z,95093.13
2023-08-15T23:58:30.866Z,95100.06
